METAR Data
IDs: Format: Raw Decoded Include TAF

Data at: 0437 UTC 27 Jan 2021

PAOR 270353Z 00000KT 10SM CLR M32/M37 A3026 RMK AO2 SLP351 T13221367